createdAt,value
2022-11-24T00:01:06.241Z,28.17
2022-11-24T00:03:33.205Z,18.40
2022-11-24T00:06:05.794Z,13.65
2022-11-24T00:08:32.712Z,18.55
2022-11-24T00:11:11.818Z,25.73
2022-11-24T00:13:40.099Z,24.35
2022-11-24T00:16:15.698Z,22.48
2022-11-24T00:18:44.933Z,18.92
2022-11-24T00:21:12.522Z,21.83
2022-11-24T00:23:40.257Z,25.58
2022-11-24T00:26:13.627Z,19.30
2022-11-24T00:28:42.674Z,23.00
2022-11-24T00:31:21.303Z,22.25
2022-11-24T00:33:53.766Z,19.77
2022-11-24T00:36:26.579Z,23.98
2022-11-24T00:39:01.201Z,30.88
2022-11-24T00:41:32.069Z,19.60
2022-11-24T00:44:00.283Z,20.02
2022-11-24T00:46:28.852Z,13.52
2022-11-24T00:48:56.299Z,23.92
2022-11-24T00:51:26.216Z,23.58
2022-11-24T00:53:53.340Z,15.98
2022-11-24T00:56:20.435Z,19.65
2022-11-24T00:58:46.975Z,22.17
2022-11-24T01:03:45.203Z,23.05
2022-11-24T01:06:14.548Z,21.77
2022-11-24T01:08:41.974Z,16.40
2022-11-24T01:11:08.579Z,24.48
2022-11-24T01:13:37.044Z,28.65
2022-11-24T01:16:06.069Z,15.27
2022-11-24T01:18:33.891Z,18.83
2022-11-24T01:21:09.843Z,14.38
2022-11-24T01:23:39.256Z,18.63
2022-11-24T01:26:10.674Z,20.70
2022-11-24T01:28:44.846Z,17.98
2022-11-24T01:31:15.320Z,16.58
2022-11-24T01:33:42.052Z,25.55
2022-11-24T01:36:08.733Z,20.58
2022-11-24T01:38:35.391Z,20.55
2022-11-24T01:41:03.350Z,23.00
2022-11-24T01:43:32.258Z,12.30
2022-11-24T01:46:14.606Z,17.55
2022-11-24T01:48:46.948Z,21.25
2022-11-24T01:51:26.154Z,18.65
2022-11-24T01:53:58.879Z,20.13
2022-11-24T01:56:28.819Z,16.83
2022-11-24T01:58:59.660Z,16.67
2022-11-24T02:01:29.295Z,22.42
2022-11-24T02:03:57.108Z,17.77
2022-11-24T02:06:28.218Z,16.38
2022-11-24T02:09:41.383Z,19.40
2022-11-24T02:12:09.375Z,25.23
2022-11-24T02:14:42.309Z,24.50
2022-11-24T02:17:10.957Z,18.30
2022-11-24T02:19:39.309Z,22.52
2022-11-24T02:22:16.090Z,21.17
2022-11-24T02:25:39.708Z,16.13
2022-11-24T02:28:13.521Z,18.50
2022-11-24T02:30:40.423Z,17.33
2022-11-24T02:33:06.988Z,17.15
2022-11-24T02:35:33.735Z,14.82
2022-11-24T02:38:00.221Z,9.70
2022-11-24T02:40:30.090Z,19.23
2022-11-24T02:43:04.192Z,17.58
2022-11-24T02:45:31.777Z,19.42
2022-11-24T02:47:58.637Z,15.73
2022-11-24T02:50:25.455Z,11.50
2022-11-24T02:52:52.243Z,15.93
2022-11-24T02:55:18.849Z,18.67
2022-11-24T02:57:45.357Z,21.20
2022-11-24T03:00:12.293Z,12.90
2022-11-24T03:02:39.014Z,10.57
2022-11-24T03:05:06.189Z,15.00
2022-11-24T03:07:32.651Z,20.92
2022-11-24T03:09:59.312Z,19.00
2022-11-24T03:12:25.857Z,22.55
2022-11-24T03:14:52.335Z,17.70
2022-11-24T03:17:18.796Z,18.00
2022-11-24T03:19:45.395Z,13.32
2022-11-24T03:22:13.248Z,10.60
2022-11-24T03:24:39.722Z,15.48
2022-11-24T03:27:06.180Z,16.88
2022-11-24T03:29:32.739Z,14.63
2022-11-24T03:31:59.448Z,13.52
2022-11-24T03:34:26.143Z,16.45
2022-11-24T03:36:52.627Z,13.35
2022-11-24T03:39:19.049Z,13.85
2022-11-24T03:41:45.523Z,17.45
2022-11-24T03:44:11.968Z,14.32
2022-11-24T03:46:38.907Z,16.98
2022-11-24T03:49:05.599Z,15.48
2022-11-24T03:51:32.036Z,16.25
2022-11-24T03:53:58.463Z,14.88
2022-11-24T03:56:24.893Z,16.98
2022-11-24T03:58:51.698Z,15.32
2022-11-24T04:01:18.447Z,12.23
2022-11-24T04:03:44.898Z,16.00
2022-11-24T04:06:11.496Z,15.77
2022-11-24T04:08:38.134Z,14.27
2022-11-24T04:11:04.770Z,15.52
2022-11-24T04:13:31.255Z,13.70
2022-11-24T04:15:57.678Z,15.63
2022-11-24T04:18:24.206Z,12.95
2022-11-24T04:20:51.510Z,14.90
2022-11-24T04:23:18.545Z,11.10
2022-11-24T04:25:44.972Z,15.90
2022-11-24T04:28:11.521Z,14.27
2022-11-24T04:30:38.558Z,19.23
2022-11-24T04:33:05.012Z,17.40
2022-11-24T04:35:31.404Z,19.33
2022-11-24T04:38:02.767Z,14.80
2022-11-24T04:40:29.295Z,19.95
2022-11-24T04:42:56.257Z,15.10
2022-11-24T04:45:23.478Z,15.18
2022-11-24T04:47:50.130Z,13.68
2022-11-24T04:50:17.111Z,22.33
2022-11-24T04:52:43.671Z,15.35
2022-11-24T04:55:10.699Z,15.38
2022-11-24T04:57:37.370Z,24.15
2022-11-24T05:00:04.216Z,11.40
2022-11-24T05:02:30.808Z,16.35
2022-11-24T05:04:57.281Z,19.98
2022-11-24T05:07:23.743Z,11.23
2022-11-24T05:10:10.999Z,14.10
2022-11-24T05:12:37.472Z,15.35
2022-11-24T05:15:05.364Z,13.43
2022-11-24T05:17:34.611Z,14.57
2022-11-24T05:20:05.598Z,16.55
2022-11-24T05:22:32.167Z,16.60
2022-11-24T05:24:58.694Z,16.15
2022-11-24T05:27:25.134Z,15.15
2022-11-24T05:29:51.617Z,14.32
2022-11-24T05:32:18.244Z,20.00
2022-11-24T05:34:44.709Z,17.60
2022-11-24T05:37:11.149Z,15.02
2022-11-24T05:39:37.682Z,15.68
2022-11-24T05:42:24.654Z,16.80
2022-11-24T05:44:51.409Z,17.10
2022-11-24T05:47:18.468Z,20.00
2022-11-24T05:49:45.030Z,20.58
2022-11-24T05:52:12.191Z,15.95
2022-11-24T05:54:38.742Z,13.40
2022-11-24T05:57:05.602Z,14.18
2022-11-24T05:59:32.169Z,19.27
2022-11-24T06:01:58.730Z,18.55
2022-11-24T06:04:25.323Z,17.05
2022-11-24T06:06:51.863Z,16.95
2022-11-24T06:09:18.298Z,14.40
2022-11-24T06:11:44.738Z,12.75
2022-11-24T06:14:11.748Z,14.90
2022-11-24T06:16:38.541Z,16.20
2022-11-24T06:19:05.021Z,19.52
2022-11-24T06:21:31.837Z,13.98
2022-11-24T06:23:58.547Z,18.83
2022-11-24T06:26:24.950Z,20.13
2022-11-24T06:28:51.397Z,10.65
2022-11-24T06:31:17.838Z,17.55
2022-11-24T06:33:44.699Z,16.10
2022-11-24T06:36:14.069Z,15.60
2022-11-24T06:38:40.556Z,15.02
2022-11-24T06:41:09.802Z,13.25
2022-11-24T06:43:36.604Z,13.70
2022-11-24T06:46:03.499Z,13.77
2022-11-24T06:48:30.559Z,12.52
2022-11-24T06:51:01.323Z,8.25
2022-11-24T06:53:31.043Z,10.57
2022-11-24T06:56:00.030Z,7.90
2022-11-24T06:58:26.740Z,10.95
2022-11-24T07:00:53.459Z,9.40
2022-11-24T07:03:20.210Z,8.05
2022-11-24T07:05:46.765Z,8.52
2022-11-24T07:08:17.787Z,8.07
2022-11-24T07:10:44.960Z,7.00
2022-11-24T07:13:11.434Z,5.43
2022-11-24T07:15:37.855Z,6.65
2022-11-24T07:18:04.729Z,5.05
2022-11-24T07:20:31.398Z,3.50
2022-11-24T07:22:58.638Z,5.78
2022-11-24T07:25:25.813Z,4.95
2022-11-24T07:27:57.050Z,3.60
2022-11-24T07:30:24.249Z,6.55
2022-11-24T07:32:51.169Z,5.18
2022-11-24T07:35:17.928Z,4.55
2022-11-24T07:37:44.479Z,5.43
2022-11-24T07:40:11.482Z,2.75
2022-11-24T07:42:37.863Z,4.55
2022-11-24T07:45:04.648Z,5.30
2022-11-24T07:47:31.168Z,4.13
2022-11-24T07:49:57.605Z,2.70
2022-11-24T07:52:26.592Z,5.68
2022-11-24T07:54:53.170Z,4.88
2022-11-24T07:57:19.615Z,4.35
2022-11-24T07:59:46.429Z,2.60
2022-11-24T08:02:13.523Z,4.65
2022-11-24T08:04:40.071Z,5.15
2022-11-24T08:07:06.792Z,2.88
2022-11-24T08:09:33.252Z,2.92
2022-11-24T08:11:59.743Z,5.07
2022-11-24T08:14:26.391Z,5.22
2022-11-24T08:16:53.034Z,4.40
2022-11-24T08:19:19.732Z,2.95
2022-11-24T08:21:46.184Z,3.63
2022-11-24T08:24:15.139Z,6.00
2022-11-24T08:26:42.287Z,5.45
2022-11-24T08:29:09.603Z,4.78
2022-11-24T08:31:38.746Z,4.72
2022-11-24T08:34:06.069Z,6.43
2022-11-24T08:36:33.368Z,4.05
2022-11-24T08:39:00.820Z,3.65
2022-11-24T08:41:28.406Z,7.20
2022-11-24T08:43:55.451Z,5.50
2022-11-24T08:46:22.175Z,5.88
2022-11-24T08:48:50.309Z,9.35
2022-11-24T08:51:19.411Z,8.40
2022-11-24T08:53:46.055Z,5.55
2022-11-24T08:56:13.328Z,6.55
2022-11-24T08:58:40.776Z,8.80
2022-11-24T09:01:15.780Z,7.90
2022-11-24T09:03:49.932Z,7.90
2022-11-24T09:06:23.462Z,7.15
2022-11-24T09:08:50.035Z,7.93
2022-11-24T09:11:17.540Z,7.55
2022-11-24T09:13:44.563Z,8.48
2022-11-24T09:16:17.499Z,7.15
2022-11-24T09:18:44.382Z,10.00
2022-11-24T09:21:13.540Z,10.93
2022-11-24T09:23:41.082Z,9.98
2022-11-24T09:26:11.198Z,9.70
2022-11-24T09:28:38.321Z,10.85
2022-11-24T09:31:07.951Z,9.77
2022-11-24T09:33:35.037Z,8.38
2022-11-24T09:36:02.055Z,9.23
2022-11-24T09:38:28.688Z,9.77
2022-11-24T09:40:55.904Z,9.05
2022-11-24T09:43:39.507Z,8.77
2022-11-24T09:46:12.761Z,7.95
2022-11-24T09:48:42.412Z,8.80
2022-11-24T09:51:14.569Z,11.35
2022-11-24T09:53:49.761Z,10.95
2022-11-24T09:56:21.967Z,7.70
2022-11-24T09:58:54.326Z,10.23
2022-11-24T10:01:30.948Z,7.20
2022-11-24T10:04:04.307Z,6.95
2022-11-24T10:07:21.119Z,11.15
2022-11-24T10:10:14.054Z,10.48
2022-11-24T10:13:05.658Z,8.27
2022-11-24T10:16:17.894Z,9.25
2022-11-24T10:19:07.687Z,11.20
2022-11-24T10:21:51.924Z,10.63
2022-11-24T10:25:17.150Z,7.95
2022-11-24T10:27:47.413Z,6.85
2022-11-24T10:30:20.373Z,11.13
2022-11-24T10:32:49.729Z,8.70
2022-11-24T10:35:23.194Z,11.40
2022-11-24T10:37:56.500Z,8.82
2022-11-24T10:40:56.543Z,11.57
2022-11-24T10:43:26.840Z,7.00
2022-11-24T10:45:55.047Z,13.32
2022-11-24T10:48:25.632Z,12.77
2022-11-24T10:51:06.296Z,9.60
2022-11-24T10:53:35.385Z,8.90
2022-11-24T10:56:05.268Z,12.68
2022-11-24T10:58:38.435Z,13.65
2022-11-24T11:01:14.161Z,11.27
2022-11-24T11:03:50.984Z,12.82
2022-11-24T11:06:31.336Z,14.02
2022-11-24T11:09:07.141Z,10.32
2022-11-24T11:11:34.911Z,12.07
2022-11-24T11:14:06.459Z,9.02
2022-11-24T11:16:34.730Z,10.95
2022-11-24T11:19:15.739Z,11.15
2022-11-24T11:22:13.852Z,11.30
2022-11-24T11:24:42.454Z,11.55
2022-11-24T11:27:24.688Z,8.75
2022-11-24T11:35:38.789Z,11.55
2022-11-24T11:38:06.836Z,13.38
2022-11-24T11:40:34.786Z,8.10
2022-11-24T11:43:34.392Z,13.02
2022-11-24T11:46:09.697Z,11.88
2022-11-24T11:48:43.630Z,12.07
2022-11-24T11:51:25.901Z,12.85
2022-11-24T11:54:04.483Z,15.50
2022-11-24T11:56:35.157Z,11.82
2022-11-24T11:59:59.320Z,13.63
2022-11-24T12:02:53.647Z,12.25
2022-11-24T12:05:57.920Z,12.18
2022-11-24T12:09:18.075Z,7.32
2022-11-24T12:11:45.334Z,13.02
2022-11-24T12:14:17.729Z,11.32
2022-11-24T12:16:51.236Z,12.65
2022-11-24T12:19:56.408Z,12.80
2022-11-24T12:22:43.824Z,12.27
2022-11-24T12:25:34.516Z,13.45
2022-11-24T12:28:27.141Z,13.70
2022-11-24T12:31:08.857Z,11.80
2022-11-24T12:34:01.110Z,9.88
2022-11-24T12:36:47.779Z,14.02
2022-11-24T12:39:34.313Z,17.98
2022-11-24T12:42:17.396Z,13.40
2022-11-24T12:45:02.517Z,8.65
2022-11-24T12:48:06.782Z,9.73
2022-11-24T12:50:38.605Z,12.38
2022-11-24T12:53:13.567Z,11.32
2022-11-24T12:55:42.511Z,14.00
2022-11-24T12:58:39.055Z,9.65
2022-11-24T13:01:23.275Z,12.25
2022-11-24T13:04:07.662Z,12.00
2022-11-24T13:07:02.042Z,13.18
2022-11-24T13:09:28.457Z,10.02
2022-11-24T13:12:15.194Z,13.98
2022-11-24T13:14:47.964Z,16.63
2022-11-24T13:17:40.593Z,16.48
2022-11-24T13:20:25.219Z,13.60
2022-11-24T13:22:53.991Z,14.52
2022-11-24T13:25:24.314Z,12.00
2022-11-24T13:27:57.467Z,14.98
2022-11-24T13:30:35.937Z,14.55
2022-11-24T13:33:27.300Z,14.27
2022-11-24T13:36:03.054Z,13.60
2022-11-24T13:38:44.842Z,13.95
2022-11-24T13:41:31.197Z,31.02
2022-11-24T13:44:24.465Z,11.15
2022-11-24T13:47:05.567Z,14.57
2022-11-24T13:49:46.456Z,14.05
2022-11-24T13:52:44.468Z,14.30
2022-11-24T13:57:46.373Z,14.77
2022-11-24T14:00:20.448Z,13.55
2022-11-24T14:02:47.384Z,19.10
2022-11-24T14:05:18.949Z,11.50
2022-11-24T14:07:48.586Z,13.60
2022-11-24T14:10:18.695Z,16.20
2022-11-24T14:12:45.126Z,15.48
2022-11-24T14:15:22.460Z,15.60
2022-11-24T14:17:48.881Z,12.77
2022-11-24T14:20:26.565Z,13.77
2022-11-24T14:22:53.688Z,16.50
2022-11-24T14:25:30.136Z,15.77
2022-11-24T14:27:56.813Z,17.63
2022-11-24T14:30:24.796Z,17.23
2022-11-24T14:33:02.208Z,15.10
2022-11-24T14:35:31.257Z,19.52
2022-11-24T14:37:59.004Z,14.52
2022-11-24T14:40:37.749Z,16.98
2022-11-24T14:43:13.203Z,13.85
2022-11-24T14:45:48.566Z,19.83
2022-11-24T14:48:17.610Z,17.48
2022-11-24T14:50:44.652Z,17.83
2022-11-24T14:53:16.325Z,18.02
2022-11-24T14:55:42.731Z,17.75
2022-11-24T14:58:32.268Z,19.25
2022-11-24T15:01:27.450Z,14.15
2022-11-24T15:04:46.277Z,15.80
2022-11-24T15:07:29.191Z,23.15
2022-11-24T15:10:04.272Z,19.08
2022-11-24T15:12:39.407Z,15.38
2022-11-24T15:15:15.235Z,15.35
2022-11-24T15:17:50.847Z,19.15
2022-11-24T15:20:42.228Z,18.02
2022-11-24T15:23:25.271Z,15.75
2022-11-24T15:25:55.046Z,22.33
2022-11-24T15:28:28.057Z,17.48
2022-11-24T15:30:56.824Z,18.00
2022-11-24T15:33:23.541Z,15.65
2022-11-24T15:35:50.204Z,14.95
2022-11-24T15:38:17.012Z,21.95
2022-11-24T15:40:45.644Z,16.52
2022-11-24T15:43:31.267Z,20.10
2022-11-24T15:45:58.895Z,17.88
2022-11-24T15:48:25.715Z,17.27
2022-11-24T15:50:52.944Z,20.42
2022-11-24T15:53:25.727Z,22.13
2022-11-24T15:55:52.724Z,21.60
2022-11-24T15:58:19.387Z,19.00
2022-11-24T16:00:46.385Z,16.70
2022-11-24T16:03:45.076Z,17.63
2022-11-24T16:05:59.389Z,15.07
2022-11-24T16:08:25.764Z,19.60
2022-11-24T16:10:52.199Z,19.55
2022-11-24T16:13:19.089Z,23.23
2022-11-24T16:15:47.711Z,18.15
2022-11-24T16:18:14.089Z,22.10
2022-11-24T16:20:40.641Z,23.95
2022-11-24T16:23:07.195Z,17.00
2022-11-24T16:25:33.792Z,17.48
2022-11-24T16:28:00.239Z,15.68
2022-11-24T16:30:26.638Z,19.13
2022-11-24T16:32:53.179Z,22.38
2022-11-24T16:35:20.079Z,17.45
2022-11-24T16:37:46.631Z,16.10
2022-11-24T16:40:13.285Z,14.60
2022-11-24T16:42:39.794Z,16.20
2022-11-24T16:45:06.808Z,29.67
2022-11-24T16:47:38.915Z,21.67
2022-11-24T16:50:06.698Z,24.50
2022-11-24T16:52:33.085Z,25.02
2022-11-24T16:55:00.152Z,21.20
2022-11-24T16:57:26.596Z,14.57
2022-11-24T16:59:53.021Z,20.17
2022-11-24T17:02:19.494Z,22.00
2022-11-24T17:04:45.971Z,14.80
2022-11-24T17:07:13.814Z,14.55
2022-11-24T17:09:40.937Z,15.60
2022-11-24T17:12:07.692Z,18.48
2022-11-24T17:14:34.402Z,20.08
2022-11-24T17:17:01.180Z,19.08
2022-11-24T17:19:28.116Z,15.10
2022-11-24T17:21:54.646Z,17.42
2022-11-24T17:24:21.479Z,22.73
2022-11-24T17:26:50.223Z,22.10
2022-11-24T17:29:17.086Z,17.85
2022-11-24T17:31:43.533Z,17.05
2022-11-24T17:34:11.965Z,17.85
2022-11-24T17:39:07.172Z,12.18
2022-11-24T17:41:34.146Z,17.52
2022-11-24T17:44:00.614Z,16.95
2022-11-24T17:46:28.590Z,15.77
2022-11-24T17:48:55.661Z,17.98
2022-11-24T17:51:24.070Z,20.85
2022-11-24T17:53:52.193Z,21.83
2022-11-24T17:56:23.869Z,14.63
2022-11-24T17:58:54.951Z,19.92
2022-11-24T18:01:21.968Z,15.60
2022-11-24T18:03:53.174Z,21.95
2022-11-24T18:06:27.815Z,19.70
2022-11-24T18:08:56.707Z,24.67
2022-11-24T18:11:30.942Z,19.50
2022-11-24T18:14:00.956Z,20.67
2022-11-24T18:16:29.877Z,19.73
2022-11-24T18:19:14.334Z,12.88
2022-11-24T18:21:42.164Z,15.90
2022-11-24T18:24:10.456Z,13.98
2022-11-24T18:26:38.992Z,17.40
2022-11-24T18:29:05.748Z,22.95
2022-11-24T18:31:34.166Z,18.42
2022-11-24T18:36:30.624Z,16.80
2022-11-24T18:39:00.698Z,14.93
2022-11-24T18:41:27.103Z,18.00
2022-11-24T18:43:53.492Z,14.43
2022-11-24T18:46:21.008Z,12.75
2022-11-24T18:48:47.587Z,16.50
2022-11-24T18:51:18.495Z,16.38
2022-11-24T18:53:46.844Z,24.70
2022-11-24T18:56:19.051Z,17.00
2022-11-24T18:58:53.412Z,15.05
2022-11-24T19:01:22.990Z,19.63
2022-11-24T19:03:55.078Z,20.40
2022-11-24T19:06:26.467Z,22.05
2022-11-24T19:08:54.255Z,20.88
2022-11-24T19:11:23.458Z,19.08
2022-11-24T19:13:50.322Z,21.83
2022-11-24T19:16:18.825Z,18.95
2022-11-24T19:18:51.833Z,23.85
2022-11-24T19:21:20.327Z,13.93
2022-11-24T19:23:46.779Z,15.00
2022-11-24T19:26:13.226Z,18.85
2022-11-24T19:28:39.688Z,12.50
2022-11-24T19:31:08.785Z,16.83
2022-11-24T19:33:35.913Z,18.75
2022-11-24T19:36:13.324Z,18.65
2022-11-24T19:38:41.042Z,18.97
2022-11-24T19:41:08.866Z,13.65
2022-11-24T19:43:35.577Z,25.25
2022-11-24T19:46:07.090Z,18.92
2022-11-24T19:48:35.406Z,13.75
2022-11-24T19:51:03.486Z,14.35
2022-11-24T19:53:30.568Z,22.50
2022-11-24T19:56:05.445Z,17.58
2022-11-24T19:58:32.028Z,19.83
2022-11-24T20:01:08.580Z,13.43
2022-11-24T20:03:35.689Z,23.90
2022-11-24T20:06:02.700Z,19.02
2022-11-24T20:08:33.984Z,20.55
2022-11-24T20:11:08.467Z,11.50
2022-11-24T20:13:36.579Z,10.32
2022-11-24T20:16:10.101Z,18.45
2022-11-24T20:18:43.732Z,21.50
2022-11-24T20:21:18.036Z,17.00
2022-11-24T20:23:46.438Z,14.40
2022-11-24T20:28:41.662Z,13.27
2022-11-24T20:31:11.760Z,19.35
2022-11-24T20:33:39.376Z,16.35
2022-11-24T20:36:08.782Z,19.27
2022-11-24T20:38:35.585Z,15.45
2022-11-24T20:41:08.774Z,23.75
2022-11-24T20:43:35.908Z,12.48
2022-11-24T20:46:04.095Z,16.95
2022-11-24T20:48:30.877Z,13.30
2022-11-24T20:51:09.597Z,15.95
2022-11-24T20:53:36.949Z,30.05
2022-11-24T20:56:06.125Z,17.50
2022-11-24T20:58:34.567Z,11.48
2022-11-24T21:01:05.723Z,12.55
2022-11-24T21:03:32.783Z,21.80
2022-11-24T21:05:59.764Z,10.73
2022-11-24T21:08:35.935Z,12.95
2022-11-24T21:11:04.091Z,12.50
2022-11-24T21:13:38.209Z,17.70
2022-11-24T21:16:16.687Z,12.82
2022-11-24T21:18:44.858Z,21.65
2022-11-24T21:21:12.409Z,18.45
2022-11-24T21:23:39.029Z,13.60
2022-11-24T21:26:12.993Z,12.52
2022-11-24T21:28:42.883Z,10.32
2022-11-24T21:31:14.862Z,15.70
2022-11-24T21:33:44.784Z,12.63
2022-11-24T21:36:12.866Z,8.73
2022-11-24T21:38:39.311Z,13.52
2022-11-24T21:41:08.244Z,15.50
2022-11-24T21:43:35.299Z,7.55
2022-11-24T21:46:03.001Z,15.18
2022-11-24T21:48:31.479Z,14.25
2022-11-24T21:50:59.631Z,13.98
2022-11-24T21:53:33.332Z,15.75
2022-11-24T21:56:02.606Z,13.30
2022-11-24T21:58:29.742Z,19.55
2022-11-24T22:01:04.961Z,14.98
2022-11-24T22:03:31.916Z,19.00
2022-11-24T22:06:00.439Z,14.73
2022-11-24T22:10:59.568Z,18.75
2022-11-24T22:13:26.009Z,20.42
2022-11-24T22:16:02.387Z,15.63
2022-11-24T22:18:33.561Z,11.07
2022-11-24T22:21:04.644Z,14.10
2022-11-24T22:23:32.250Z,20.42
2022-11-24T22:26:06.614Z,18.77
2022-11-24T22:28:35.324Z,16.38
2022-11-24T22:31:17.528Z,14.02
2022-11-24T22:33:44.535Z,13.45
2022-11-24T22:36:12.819Z,17.02
2022-11-24T22:38:39.636Z,14.82
2022-11-24T22:41:08.700Z,12.48
2022-11-24T22:43:36.838Z,10.00
2022-11-24T22:46:25.133Z,10.45
2022-11-24T22:48:52.926Z,13.45
2022-11-24T22:51:22.206Z,10.95
2022-11-24T22:53:50.596Z,17.25
2022-11-24T22:56:17.650Z,19.50
2022-11-24T22:58:44.409Z,13.88
2022-11-24T23:01:24.994Z,8.75
2022-11-24T23:03:54.288Z,12.23
2022-11-24T23:06:22.811Z,16.67
2022-11-24T23:08:52.147Z,15.25
2022-11-24T23:11:29.139Z,13.65
2022-11-24T23:14:03.119Z,13.73
2022-11-24T23:16:31.559Z,11.30
2022-11-24T23:18:59.725Z,22.85
2022-11-24T23:21:31.917Z,15.50
2022-11-24T23:24:00.213Z,19.73
2022-11-24T23:26:30.097Z,18.77
2022-11-24T23:28:56.852Z,18.90
2022-11-24T23:31:28.501Z,11.60
2022-11-24T23:33:57.421Z,17.15
2022-11-24T23:36:25.133Z,19.13
2022-11-24T23:38:56.738Z,13.93
2022-11-24T23:41:26.749Z,13.82
2022-11-24T23:43:53.319Z,22.70
2022-11-24T23:46:22.162Z,15.63
2022-11-24T23:48:51.449Z,12.13
2022-11-24T23:51:22.040Z,19.33
2022-11-24T23:53:49.983Z,13.80
2022-11-24T23:56:23.762Z,15.97
2022-11-24T23:58:52.204Z,12.32
